createdAt,value
2023-03-14T00:00:21.321Z,98353.19
2023-03-14T00:01:15.205Z,98327.63
2023-03-14T00:01:56.288Z,98349.56
2023-03-14T00:02:36.149Z,98348.56
2023-03-14T00:03:16.293Z,98323.81
2023-03-14T00:03:57.191Z,98359.63
2023-03-14T00:04:37.334Z,98335.09
2023-03-14T00:05:18.177Z,98358.59
2023-03-14T00:05:59.289Z,98307.22
2023-03-14T00:06:40.197Z,98347.88
2023-03-14T00:07:21.264Z,98323.38
2023-03-14T00:08:02.160Z,98337.91
2023-03-14T00:08:42.271Z,98327.75
2023-03-14T00:09:24.167Z,98324.00
2023-03-14T00:10:05.312Z,98361.69
2023-03-14T00:10:46.180Z,98341.84
2023-03-14T00:11:30.585Z,98332.22
2023-03-14T00:12:11.235Z,98337.88
2023-03-14T00:12:52.275Z,98316.34
2023-03-14T00:13:33.161Z,98316.56
2023-03-14T00:14:13.287Z,98343.78
2023-03-14T00:14:54.159Z,98348.81
2023-03-14T00:15:34.708Z,98325.31
2023-03-14T00:16:20.252Z,98314.13
2023-03-14T00:17:00.241Z,98335.94
2023-03-14T00:17:43.187Z,98309.91
2023-03-14T00:18:23.674Z,98317.28
2023-03-14T00:19:04.178Z,98346.97
2023-03-14T00:19:45.307Z,98335.84
2023-03-14T00:20:26.132Z,98356.13
2023-03-14T00:21:08.297Z,98324.66
2023-03-14T00:21:49.127Z,98344.81
2023-03-14T00:22:29.281Z,98319.63
2023-03-14T00:23:10.164Z,98362.44
2023-03-14T00:23:51.270Z,98341.72
2023-03-14T00:24:32.216Z,98308.34
2023-03-14T00:25:13.297Z,98325.88
2023-03-14T00:25:54.184Z,98322.53
2023-03-14T00:26:34.243Z,98352.28
2023-03-14T00:27:14.134Z,98358.34
2023-03-14T00:27:54.293Z,98357.69
2023-03-14T00:28:36.180Z,98353.50
2023-03-14T00:29:16.328Z,98346.88
2023-03-14T00:29:57.172Z,98314.41
2023-03-14T00:30:37.298Z,98327.25
2023-03-14T00:31:22.485Z,98329.78
2023-03-14T00:32:03.316Z,98357.41
2023-03-14T00:32:44.164Z,98307.88
2023-03-14T00:33:24.231Z,98335.75
2023-03-14T00:34:05.161Z,98305.81
2023-03-14T00:34:45.254Z,98322.88
2023-03-14T00:35:26.132Z,98310.84
2023-03-14T00:36:12.099Z,98321.19
2023-03-14T00:36:53.158Z,98329.31
2023-03-14T00:37:33.328Z,98321.84
2023-03-14T00:38:14.149Z,98319.06
2023-03-14T00:38:57.297Z,98311.13
2023-03-14T00:39:38.161Z,98304.59
2023-03-14T00:40:19.324Z,98319.69
2023-03-14T00:41:00.119Z,98282.03
2023-03-14T00:41:40.252Z,98317.16
2023-03-14T00:42:21.137Z,98324.09
2023-03-14T00:43:01.236Z,98304.03
2023-03-14T00:43:42.159Z,98283.69
2023-03-14T00:44:22.249Z,98280.50
2023-03-14T00:45:03.159Z,98283.13
2023-03-14T00:45:43.236Z,98298.13
2023-03-14T00:46:26.197Z,98280.84
2023-03-14T00:47:06.321Z,98274.31
2023-03-14T00:47:47.120Z,98271.72
2023-03-14T00:48:28.227Z,98295.69
2023-03-14T00:49:09.109Z,98277.38
2023-03-14T00:49:49.327Z,98288.16
2023-03-14T00:50:30.142Z,98279.09
2023-03-14T00:51:16.458Z,98242.59
2023-03-14T00:51:57.117Z,98248.09
2023-03-14T00:52:37.221Z,98281.25
2023-03-14T00:53:18.124Z,98268.75
2023-03-14T00:53:58.251Z,98268.94
2023-03-14T00:54:39.114Z,98278.53
2023-03-14T00:55:19.210Z,98272.78
2023-03-14T00:56:00.116Z,98280.66
2023-03-14T00:56:40.240Z,98288.41
2023-03-14T00:57:21.123Z,98254.03
2023-03-14T00:58:01.327Z,98295.75
2023-03-14T00:58:42.145Z,98270.34
2023-03-14T00:59:24.207Z,98299.63
2023-03-14T01:00:05.123Z,98285.69
2023-03-14T01:00:45.224Z,98275.28
2023-03-14T01:01:26.182Z,98295.00
2023-03-14T01:02:06.270Z,98304.00
2023-03-14T01:02:47.172Z,98282.84
2023-03-14T01:03:27.252Z,98260.28
2023-03-14T01:04:08.105Z,98297.44
2023-03-14T01:04:48.223Z,98291.50
2023-03-14T01:05:30.090Z,98265.81
2023-03-14T01:06:46.117Z,98239.22
2023-03-14T01:07:40.125Z,98288.66
2023-03-14T01:08:34.122Z,98287.56
2023-03-14T01:09:28.136Z,98282.47
2023-03-14T01:10:23.126Z,98283.44
2023-03-14T01:11:34.105Z,98279.50
2023-03-14T01:12:15.193Z,98262.88
2023-03-14T01:12:55.213Z,98267.91
2023-03-14T01:13:35.080Z,98259.59
2023-03-14T01:14:15.240Z,98256.59
2023-03-14T01:14:56.097Z,98250.16
2023-03-14T01:15:36.238Z,98238.63
2023-03-14T01:16:18.145Z,98283.63
2023-03-14T01:17:01.660Z,98277.44
2023-03-14T01:17:45.140Z,98274.03
2023-03-14T01:18:25.674Z,98301.72
2023-03-14T01:19:07.128Z,98302.84
2023-03-14T01:19:47.246Z,98292.78
2023-03-14T01:20:28.104Z,98304.16
2023-03-14T01:21:10.211Z,98297.34
2023-03-14T01:21:51.110Z,98287.72
2023-03-14T01:22:31.239Z,98307.97
2023-03-14T01:23:12.152Z,98296.88
2023-03-14T01:23:53.247Z,98266.16
2023-03-14T01:24:34.121Z,98282.16
2023-03-14T01:25:23.251Z,98263.50
2023-03-14T01:26:04.085Z,98264.03
2023-03-14T01:26:44.197Z,98272.78
2023-03-14T01:27:25.083Z,98272.16
2023-03-14T01:28:05.224Z,98263.25
2023-03-14T01:28:46.133Z,98281.31
2023-03-14T01:29:27.249Z,98282.09
2023-03-14T01:30:08.111Z,98230.72
2023-03-14T01:30:48.226Z,98233.09
2023-03-14T01:31:29.357Z,98244.75
2023-03-14T01:32:10.224Z,98273.84
2023-03-14T01:32:51.223Z,98259.06
2023-03-14T01:33:31.205Z,98272.28
2023-03-14T01:34:12.132Z,98272.50
2023-03-14T01:34:52.185Z,98288.34
2023-03-14T01:35:33.108Z,98294.22
2023-03-14T01:36:15.321Z,98292.56
2023-03-14T01:36:56.092Z,98281.03
2023-03-14T01:37:36.257Z,98305.06
2023-03-14T01:38:17.077Z,98288.66
2023-03-14T01:38:57.196Z,98275.53
2023-03-14T01:39:38.135Z,98312.00
2023-03-14T01:40:19.181Z,98312.50
2023-03-14T01:41:00.109Z,98310.13
2023-03-14T01:41:40.186Z,98300.50
2023-03-14T01:42:22.093Z,98325.56
2023-03-14T01:43:05.217Z,98331.53
2023-03-14T01:43:46.077Z,98331.88
2023-03-14T01:44:26.211Z,98306.66
2023-03-14T01:45:09.130Z,98338.44
2023-03-14T01:46:14.220Z,98315.00
2023-03-14T01:46:55.084Z,98348.31
2023-03-14T01:47:36.193Z,98328.47
2023-03-14T01:48:16.100Z,98343.03
2023-03-14T01:48:56.254Z,98347.38
2023-03-14T01:49:42.075Z,98359.81
2023-03-14T01:50:29.115Z,98331.38
2023-03-14T01:51:48.074Z,98321.53
2023-03-14T01:53:14.047Z,98319.88
2023-03-14T01:54:23.090Z,98310.91
2023-03-14T01:55:22.083Z,98288.47
2023-03-14T01:56:06.116Z,98315.84
2023-03-14T01:56:49.338Z,98297.66
2023-03-14T01:57:42.081Z,98294.84
2023-03-14T01:58:22.207Z,98266.84
2023-03-14T01:59:03.055Z,98267.78
2023-03-14T01:59:45.204Z,98266.75
2023-03-14T02:00:30.093Z,98296.34
2023-03-14T02:01:19.220Z,98248.06
2023-03-14T02:02:15.057Z,98272.91
2023-03-14T02:03:21.139Z,98281.31
2023-03-14T02:04:18.056Z,98262.88
2023-03-14T02:05:13.076Z,98258.88
2023-03-14T02:06:12.048Z,98245.78
2023-03-14T02:07:30.096Z,98282.69
2023-03-14T02:08:15.165Z,98266.13
2023-03-14T02:08:57.072Z,98256.94
2023-03-14T02:09:38.172Z,98249.28
2023-03-14T02:10:19.095Z,98281.38
2023-03-14T02:10:59.166Z,98262.38
2023-03-14T02:11:40.039Z,98260.94
2023-03-14T02:12:24.144Z,98263.19
2023-03-14T02:13:09.120Z,98256.31
2023-03-14T02:13:50.124Z,98273.72
2023-03-14T02:14:40.038Z,98265.22
2023-03-14T02:15:21.170Z,98265.72
2023-03-14T02:16:02.137Z,98274.34
2023-03-14T02:16:43.212Z,98259.06
2023-03-14T02:17:28.064Z,98274.75
2023-03-14T02:18:17.074Z,98247.25
2023-03-14T02:19:11.036Z,98234.44
2023-03-14T02:21:11.068Z,98197.34
2023-03-14T02:22:24.059Z,98206.09
2023-03-14T02:23:18.060Z,98210.03
2023-03-14T02:24:39.036Z,98195.72
2023-03-14T02:26:01.023Z,98219.28
2023-03-14T02:27:25.053Z,98199.66
2023-03-14T02:28:19.078Z,98170.34
2023-03-14T02:29:13.028Z,98200.94
2023-03-14T02:30:25.046Z,98188.00
2023-03-14T02:31:20.051Z,98184.97
2023-03-14T02:32:14.033Z,98155.91
2023-03-14T02:33:33.029Z,98148.81
2023-03-14T02:34:27.062Z,98170.59
2023-03-14T02:35:29.035Z,98142.16
2023-03-14T02:36:27.005Z,98159.31
2023-03-14T02:37:21.017Z,98141.38
2023-03-14T02:38:32.024Z,98160.22
2023-03-14T02:39:40.072Z,98141.78
2023-03-14T02:40:21.132Z,98103.66
2023-03-14T02:41:02.049Z,98081.25
2023-03-14T02:41:43.495Z,98092.19
2023-03-14T02:42:24.036Z,98104.59
2023-03-14T02:43:04.168Z,98089.78
2023-03-14T02:43:45.039Z,98096.50
2023-03-14T02:44:26.113Z,98077.28
2023-03-14T02:45:29.027Z,98091.91
2023-03-14T02:46:10.214Z,98065.50
2023-03-14T02:46:51.070Z,98089.28
2023-03-14T02:47:37.137Z,98099.06
2023-03-14T02:48:30.021Z,98120.13
2023-03-14T02:49:15.053Z,98109.50
2023-03-14T02:49:49.128Z,98073.31
2023-03-14T02:50:41.021Z,98081.75
2023-03-14T02:51:15.134Z,98104.25
2023-03-14T02:52:02.007Z,98090.06
2023-03-14T02:52:36.164Z,98120.63
2023-03-14T02:53:29.034Z,98104.91
2023-03-14T02:54:03.122Z,98106.16
2023-03-14T02:54:44.042Z,98131.50
2023-03-14T02:55:30.124Z,98090.56
2023-03-14T02:56:12.039Z,98078.03
2023-03-14T02:56:52.162Z,98104.94
2023-03-14T02:57:33.006Z,98107.06
2023-03-14T02:58:13.137Z,98121.28
2023-03-14T02:58:54.005Z,98100.75
2023-03-14T02:59:34.137Z,98111.78
2023-03-14T03:00:16.065Z,98112.38
2023-03-14T03:00:56.171Z,98104.69
2023-03-14T03:01:37.093Z,98135.19
2023-03-14T03:02:42.935Z,98103.13
2023-03-14T03:03:31.013Z,98102.84
2023-03-14T03:04:06.199Z,98136.88
2023-03-14T03:04:53.014Z,98130.50
2023-03-14T03:05:41.031Z,98119.28
2023-03-14T03:06:15.160Z,98136.88
2023-03-14T03:07:02.021Z,98124.25
2023-03-14T03:07:36.222Z,98123.88
2023-03-14T03:08:23.011Z,98140.72
2023-03-14T03:08:57.141Z,98144.03
2023-03-14T03:09:44.001Z,98108.03
2023-03-14T03:10:18.606Z,98136.88
2023-03-14T03:11:07.071Z,98118.69
2023-03-14T03:11:41.108Z,98097.00
2023-03-14T03:12:28.022Z,98115.22
2023-03-14T03:13:02.137Z,98138.56
2023-03-14T03:13:48.992Z,98146.38
2023-03-14T03:14:23.121Z,98135.97
2023-03-14T03:15:10.988Z,98128.44
2023-03-14T03:15:45.190Z,98137.91
2023-03-14T03:16:32.107Z,98127.63
2023-03-14T03:17:06.118Z,98139.31
2023-03-14T03:17:52.993Z,98128.34
2023-03-14T03:18:27.133Z,98098.44
2023-03-14T03:19:13.987Z,98103.88
2023-03-14T03:19:48.126Z,98087.16
2023-03-14T03:20:34.976Z,98090.94
2023-03-14T03:21:11.166Z,98096.25
2023-03-14T03:21:52.046Z,98093.06
2023-03-14T03:22:32.077Z,98078.63
2023-03-14T03:23:13.016Z,98072.16
2023-03-14T03:23:53.092Z,98088.00
2023-03-14T03:24:33.987Z,98098.81
2023-03-14T03:25:16.390Z,98084.63
2023-03-14T03:25:58.989Z,98080.06
2023-03-14T03:26:39.120Z,98121.28
2023-03-14T03:27:20.044Z,98129.81
2023-03-14T03:28:01.086Z,98114.78
2023-03-14T03:28:41.988Z,98097.16
2023-03-14T03:29:22.093Z,98121.28
2023-03-14T03:30:01.972Z,98072.94
2023-03-14T03:30:46.208Z,98116.03
2023-03-14T03:31:26.997Z,98111.44
2023-03-14T03:32:07.081Z,98110.56
2023-03-14T03:32:48.037Z,98065.63
2023-03-14T03:33:28.168Z,98079.66
2023-03-14T03:34:08.986Z,98087.94
2023-03-14T03:34:49.117Z,98106.03
2023-03-14T03:35:29.992Z,98086.00
2023-03-14T03:36:11.166Z,98120.91
2023-03-14T03:36:51.992Z,98096.78
2023-03-14T03:37:32.086Z,98071.66
2023-03-14T03:38:12.998Z,98108.16
2023-03-14T03:38:53.131Z,98068.66
2023-03-14T03:39:34.002Z,98066.81
2023-03-14T03:40:16.119Z,98085.78
2023-03-14T03:40:57.004Z,98080.56
2023-03-14T03:41:50.968Z,98104.00
2023-03-14T03:42:44.967Z,98116.94
2023-03-14T03:43:31.999Z,98107.69
2023-03-14T03:44:06.923Z,98072.94
2023-03-14T03:44:54.985Z,98085.94
2023-03-14T03:45:29.074Z,98100.44
2023-03-14T03:46:16.014Z,98054.19
2023-03-14T03:46:50.127Z,98098.69
2023-03-14T03:47:38.976Z,98112.75
2023-03-14T03:48:13.139Z,98075.50
2023-03-14T03:48:54.004Z,98093.88
2023-03-14T03:49:39.158Z,98103.56
2023-03-14T03:50:18.985Z,98068.56
2023-03-14T03:50:59.096Z,98072.53
2023-03-14T03:51:39.949Z,98091.91
2023-03-14T03:52:20.129Z,98074.31
2023-03-14T03:53:00.983Z,98078.09
2023-03-14T03:53:41.129Z,98084.38
2023-03-14T03:54:22.012Z,98087.22
2023-03-14T03:55:02.079Z,98070.56
2023-03-14T03:55:41.983Z,98077.06
2023-03-14T03:56:22.138Z,98052.00
2023-03-14T03:57:02.956Z,98086.03
2023-03-14T03:57:43.062Z,98078.66
2023-03-14T03:58:23.970Z,98072.25
2023-03-14T03:59:04.081Z,98042.34
2023-03-14T03:59:45.990Z,98077.66
2023-03-14T04:00:40.959Z,98077.78
2023-03-14T04:01:34.953Z,98033.22
2023-03-14T04:02:28.996Z,98040.19
2023-03-14T04:03:22.966Z,98063.03
2023-03-14T04:04:17.032Z,98047.38
2023-03-14T04:05:03.976Z,98027.97
2023-03-14T04:05:45.085Z,98005.63
2023-03-14T04:06:25.041Z,98005.25
2023-03-14T04:07:05.647Z,98036.66
2023-03-14T04:07:45.969Z,98032.66
2023-03-14T04:08:26.057Z,98009.00
2023-03-14T04:09:06.936Z,97979.09
2023-03-14T04:09:47.260Z,97990.63
2023-03-14T04:10:26.961Z,98024.69
2023-03-14T04:11:09.093Z,98003.75
2023-03-14T04:11:48.942Z,98013.00
2023-03-14T04:12:29.068Z,98012.81
2023-03-14T04:13:09.961Z,97999.84
2023-03-14T04:13:50.074Z,98006.94
2023-03-14T04:14:30.965Z,97997.97
2023-03-14T04:15:12.040Z,98015.09
2023-03-14T04:15:52.010Z,98010.94
2023-03-14T04:16:33.034Z,98002.59
2023-03-14T04:17:14.982Z,97964.38
2023-03-14T04:17:55.055Z,98011.75
2023-03-14T04:18:36.965Z,97985.84
2023-03-14T04:19:17.134Z,97971.88
2023-03-14T04:19:58.957Z,97966.19
2023-03-14T04:20:43.055Z,97994.63
2023-03-14T04:21:25.019Z,97999.84
2023-03-14T04:22:05.055Z,97975.59
2023-03-14T04:22:46.948Z,97984.72
2023-03-14T04:23:28.108Z,97994.72
2023-03-14T04:24:07.949Z,98013.94
2023-03-14T04:24:49.164Z,97962.75
2023-03-14T04:25:29.004Z,97983.66
2023-03-14T04:26:10.058Z,98010.44
2023-03-14T04:26:49.978Z,97994.94
2023-03-14T04:27:31.032Z,97970.44
2023-03-14T04:28:11.924Z,97996.31
2023-03-14T04:28:53.024Z,97998.41
2023-03-14T04:29:32.937Z,98019.22
2023-03-14T04:30:14.011Z,97988.75
2023-03-14T04:30:54.037Z,97974.19
2023-03-14T04:31:34.122Z,98018.84
2023-03-14T04:32:13.996Z,98009.81
2023-03-14T04:32:55.069Z,98003.31
2023-03-14T04:33:34.955Z,98050.16
2023-03-14T04:34:15.062Z,98020.28
2023-03-14T04:34:54.976Z,98026.75
2023-03-14T04:35:35.022Z,98015.63
2023-03-14T04:36:15.914Z,98004.94
2023-03-14T04:36:57.046Z,98024.56
2023-03-14T04:37:36.966Z,98006.16
2023-03-14T04:38:18.094Z,98031.50
2023-03-14T04:38:57.917Z,98031.25
2023-03-14T04:39:38.069Z,98001.13
2023-03-14T04:40:19.051Z,98000.09
2023-03-14T04:41:00.550Z,98028.63
2023-03-14T04:41:40.936Z,98042.81
2023-03-14T04:42:21.072Z,98031.47
2023-03-14T04:43:00.955Z,98027.47
2023-03-14T04:43:42.009Z,98050.03
2023-03-14T04:44:21.953Z,98032.53
2023-03-14T04:45:03.106Z,98011.47
2023-03-14T04:45:43.975Z,98049.22
2023-03-14T04:46:25.240Z,98031.03
2023-03-14T04:47:05.929Z,98003.47
2023-03-14T04:47:46.060Z,98030.41
2023-03-14T04:48:25.933Z,98017.91
2023-03-14T04:49:07.045Z,98031.22
2023-03-14T04:49:46.929Z,98025.19
2023-03-14T04:50:27.051Z,98032.75
2023-03-14T04:51:06.936Z,98015.44
2023-03-14T04:51:47.071Z,98042.66
2023-03-14T04:52:26.939Z,98040.41
2023-03-14T04:53:08.002Z,98005.81
2023-03-14T04:53:48.947Z,98018.31
2023-03-14T04:54:30.034Z,98037.25
2023-03-14T04:55:10.889Z,98007.63
2023-03-14T04:56:00.013Z,98038.38
2023-03-14T04:56:40.896Z,98010.47
2023-03-14T04:57:21.076Z,98017.97
2023-03-14T04:58:00.935Z,98023.72
2023-03-14T04:58:41.050Z,98003.66
2023-03-14T04:59:20.943Z,98037.03
2023-03-14T05:00:01.011Z,98021.22
2023-03-14T05:00:41.910Z,98015.09
2023-03-14T05:01:23.062Z,98023.63
2023-03-14T05:02:02.912Z,98033.56
2023-03-14T05:02:44.097Z,98004.13
2023-03-14T05:03:24.893Z,98023.75
2023-03-14T05:04:05.078Z,98017.91
2023-03-14T05:04:45.937Z,98013.31
2023-03-14T05:05:27.073Z,98030.41
2023-03-14T05:06:14.908Z,98003.47
2023-03-14T05:06:49.033Z,98007.09
2023-03-14T05:07:35.893Z,98001.81
2023-03-14T05:08:09.989Z,98003.75
2023-03-14T05:08:56.868Z,97968.66
2023-03-14T05:09:31.007Z,98015.03
2023-03-14T05:10:11.951Z,98012.97
2023-03-14T05:10:52.021Z,98001.88
2023-03-14T05:11:32.885Z,97977.84
2023-03-14T05:12:13.027Z,97992.22
2023-03-14T05:12:53.906Z,98003.19
2023-03-14T05:13:33.996Z,97970.38
2023-03-14T05:14:14.929Z,98005.88
2023-03-14T05:14:55.068Z,98005.91
2023-03-14T05:15:35.955Z,97987.97
2023-03-14T05:16:18.066Z,97981.69
2023-03-14T05:16:58.938Z,98008.34
2023-03-14T05:17:41.068Z,97970.75
2023-03-14T05:18:20.917Z,98002.19
2023-03-14T05:19:02.572Z,97984.78
2023-03-14T05:19:43.895Z,97999.88
2023-03-14T05:20:24.040Z,97989.34
2023-03-14T05:21:04.896Z,97990.84
2023-03-14T05:21:46.037Z,98015.50
2023-03-14T05:22:26.908Z,98004.59
2023-03-14T05:23:06.998Z,98008.34
2023-03-14T05:23:47.909Z,97980.38
2023-03-14T05:24:28.002Z,98007.94
2023-03-14T05:25:08.894Z,97981.78
2023-03-14T05:25:51.054Z,97972.59
2023-03-14T05:26:31.949Z,97977.78
2023-03-14T05:27:13.025Z,97989.56
2023-03-14T05:27:53.899Z,98011.72
2023-03-14T05:28:33.998Z,97999.28
2023-03-14T05:29:14.852Z,98015.75
2023-03-14T05:29:55.012Z,97981.06
2023-03-14T05:30:35.921Z,97983.31
2023-03-14T05:31:17.048Z,98012.63
2023-03-14T05:31:57.926Z,98018.31
2023-03-14T05:32:38.004Z,97999.22
2023-03-14T05:33:18.860Z,98011.50
2023-03-14T05:33:58.975Z,98005.47
2023-03-14T05:34:39.894Z,98003.22
2023-03-14T05:35:20.187Z,97988.63
2023-03-14T05:36:00.900Z,97999.03
2023-03-14T05:36:41.000Z,97996.06
2023-03-14T05:37:21.899Z,98001.06
2023-03-14T05:38:02.081Z,97995.34
2023-03-14T05:38:42.885Z,97963.09
2023-03-14T05:39:22.980Z,97978.16
2023-03-14T05:40:03.875Z,97996.31
2023-03-14T05:40:44.000Z,97976.28
2023-03-14T05:41:24.909Z,98001.59
2023-03-14T05:42:05.131Z,97991.16
2023-03-14T05:42:45.931Z,97996.97
2023-03-14T05:43:26.013Z,97989.78
2023-03-14T05:44:06.881Z,97974.44
2023-03-14T05:44:46.986Z,97992.94
2023-03-14T05:45:27.984Z,97986.53
2023-03-14T05:46:08.109Z,98000.63
2023-03-14T05:46:48.893Z,97998.97
2023-03-14T05:47:28.976Z,97989.69
2023-03-14T05:48:09.889Z,98013.94
2023-03-14T05:48:49.999Z,97974.50
2023-03-14T05:49:30.880Z,97997.56
2023-03-14T05:50:11.990Z,97999.03
2023-03-14T05:50:52.920Z,98001.69
2023-03-14T05:51:33.964Z,97992.81
2023-03-14T05:52:14.875Z,97994.53
2023-03-14T05:52:54.944Z,97998.19
2023-03-14T05:53:36.916Z,98001.19
2023-03-14T05:54:30.838Z,98008.59
2023-03-14T05:55:24.837Z,97995.28
2023-03-14T05:56:19.874Z,97984.59
2023-03-14T05:57:13.896Z,98014.19
2023-03-14T05:58:08.862Z,97990.94
2023-03-14T05:58:55.901Z,98014.06
2023-03-14T05:59:30.007Z,98003.31
2023-03-14T06:00:17.856Z,97979.22
2023-03-14T06:00:51.965Z,97978.28
2023-03-14T06:01:38.850Z,97988.09
2023-03-14T06:02:13.204Z,98000.19
2023-03-14T06:02:59.854Z,98009.19
2023-03-14T06:03:33.974Z,97984.78
2023-03-14T06:04:21.896Z,97995.06
2023-03-14T06:04:55.973Z,97994.91
2023-03-14T06:05:42.853Z,97997.81
2023-03-14T06:06:17.730Z,98001.44
2023-03-14T06:07:04.846Z,97984.00
2023-03-14T06:07:38.961Z,98013.31
2023-03-14T06:08:25.804Z,97961.50
2023-03-14T06:08:59.995Z,98002.91
2023-03-14T06:09:46.883Z,97990.78
2023-03-14T06:10:20.996Z,98007.16
2023-03-14T06:11:10.833Z,98003.84
2023-03-14T06:11:44.973Z,98004.22
2023-03-14T06:12:32.856Z,97992.06
2023-03-14T06:13:06.977Z,98006.44
2023-03-14T06:13:53.834Z,97994.34
2023-03-14T06:14:27.928Z,97977.78
2023-03-14T06:15:08.846Z,98008.06
2023-03-14T06:15:49.977Z,97979.41
2023-03-14T06:16:30.881Z,98015.75
2023-03-14T06:17:11.020Z,97993.56
2023-03-14T06:17:51.840Z,98015.88
2023-03-14T06:18:33.103Z,98025.50
2023-03-14T06:19:12.892Z,98002.34
2023-03-14T06:19:52.924Z,98009.81
2023-03-14T06:20:33.840Z,98030.66
2023-03-14T06:21:14.947Z,98021.41
2023-03-14T06:21:55.901Z,97986.81
2023-03-14T06:22:35.971Z,98007.25
2023-03-14T06:23:16.852Z,98022.44
2023-03-14T06:23:57.032Z,98014.72
2023-03-14T06:24:36.823Z,98019.78
2023-03-14T06:25:17.032Z,98036.91
2023-03-14T06:25:57.886Z,98035.63
2023-03-14T06:26:37.928Z,98022.50
2023-03-14T06:27:18.826Z,98025.19
2023-03-14T06:27:58.978Z,98016.94
2023-03-14T06:28:39.847Z,98023.41
2023-03-14T06:29:19.959Z,98023.63
2023-03-14T06:30:00.860Z,98029.66
2023-03-14T06:30:41.035Z,98042.16
2023-03-14T06:31:21.953Z,98033.38
2023-03-14T06:32:01.967Z,98035.25
2023-03-14T06:32:42.840Z,97997.88
2023-03-14T06:33:22.972Z,98013.47
2023-03-14T06:34:03.808Z,98034.63
2023-03-14T06:34:43.954Z,98009.63
2023-03-14T06:35:24.835Z,98015.44
2023-03-14T06:36:04.953Z,98016.22
2023-03-14T06:36:45.868Z,98039.50
2023-03-14T06:37:25.935Z,98021.34
2023-03-14T06:38:06.844Z,98016.34
2023-03-14T06:38:46.926Z,97999.59
2023-03-14T06:39:27.812Z,98028.84
2023-03-14T06:40:08.339Z,98019.63
2023-03-14T06:40:48.855Z,98007.88
2023-03-14T06:41:28.981Z,98012.34
2023-03-14T06:42:09.855Z,98019.09
2023-03-14T06:42:53.974Z,98023.75
2023-03-14T06:43:34.829Z,98020.81
2023-03-14T06:44:14.938Z,98002.84
2023-03-14T06:44:55.846Z,98019.97
2023-03-14T06:45:35.921Z,98017.97
2023-03-14T06:46:16.858Z,98032.41
2023-03-14T06:46:56.997Z,98028.00
2023-03-14T06:47:37.838Z,98031.38
2023-03-14T06:48:18.013Z,97987.97
2023-03-14T06:48:58.824Z,98022.63
2023-03-14T06:49:52.828Z,97978.22
2023-03-14T06:50:46.818Z,97965.91
2023-03-14T06:51:40.799Z,98016.44
2023-03-14T06:52:34.860Z,97995.06
2023-03-14T06:53:15.824Z,98016.34
2023-03-14T06:53:55.890Z,98013.06
2023-03-14T06:54:36.838Z,97981.28
2023-03-14T06:55:18.853Z,97992.13
2023-03-14T06:55:59.782Z,97986.78
2023-03-14T06:56:53.821Z,98005.59
2023-03-14T06:57:47.792Z,98001.22
2023-03-14T06:58:34.848Z,97985.81
2023-03-14T06:59:08.965Z,98014.53
2023-03-14T06:59:55.789Z,98020.22
2023-03-14T07:00:29.909Z,97992.22
2023-03-14T07:01:36.862Z,98022.31
2023-03-14T07:02:10.932Z,98035.25
2023-03-14T07:02:57.831Z,98043.59
2023-03-14T07:03:31.939Z,98032.31
2023-03-14T07:04:12.858Z,98038.19
2023-03-14T07:04:53.988Z,98036.16
2023-03-14T07:05:34.803Z,98029.66
2023-03-14T07:06:14.986Z,98036.66
2023-03-14T07:06:55.792Z,98024.03
2023-03-14T07:07:35.948Z,98046.59
2023-03-14T07:08:16.809Z,98045.63
2023-03-14T07:08:58.038Z,98013.69
2023-03-14T07:09:38.829Z,98021.34
2023-03-14T07:10:18.961Z,98058.16
2023-03-14T07:10:59.814Z,98053.19
2023-03-14T07:11:39.896Z,98049.78
2023-03-14T07:12:21.774Z,98031.84
2023-03-14T07:13:01.924Z,98040.59
2023-03-14T07:13:42.800Z,98050.19
2023-03-14T07:14:22.926Z,98057.59
2023-03-14T07:15:17.036Z,98053.00
2023-03-14T07:15:57.975Z,98037.31
2023-03-14T07:16:40.786Z,98043.59
2023-03-14T07:17:20.919Z,98056.56
2023-03-14T07:18:01.772Z,98044.50
2023-03-14T07:18:42.888Z,98031.06
2023-03-14T07:19:23.767Z,98058.63
2023-03-14T07:20:11.824Z,98049.88
2023-03-14T07:21:05.834Z,98041.97
2023-03-14T07:21:59.837Z,98026.56
2023-03-14T07:22:53.782Z,98047.25
2023-03-14T07:23:48.772Z,98034.44
2023-03-14T07:24:42.785Z,98048.75
2023-03-14T07:25:29.801Z,98031.22
2023-03-14T07:26:03.872Z,98022.06
2023-03-14T07:26:50.821Z,98005.94
2023-03-14T07:27:24.888Z,98048.00
2023-03-14T07:28:11.794Z,98022.91
2023-03-14T07:28:45.918Z,98026.28
2023-03-14T07:29:32.803Z,98018.91
2023-03-14T07:30:06.932Z,98008.19
2023-03-14T07:30:54.873Z,98024.19
2023-03-14T07:31:28.976Z,98010.03
2023-03-14T07:32:15.830Z,98034.91
2023-03-14T07:32:49.914Z,98015.94
2023-03-14T07:33:36.780Z,98036.38
2023-03-14T07:34:10.887Z,98020.72
2023-03-14T07:34:57.766Z,98013.25
2023-03-14T07:35:31.889Z,98041.22
2023-03-14T07:36:19.827Z,98037.66
2023-03-14T07:36:53.910Z,98014.69
2023-03-14T07:37:40.747Z,98030.59
2023-03-14T07:38:22.888Z,98023.28
2023-03-14T07:39:03.791Z,98050.84
2023-03-14T07:39:44.906Z,98058.78
2023-03-14T07:40:24.780Z,98048.13
2023-03-14T07:41:09.885Z,98023.25
2023-03-14T07:41:49.801Z,98046.66
2023-03-14T07:42:30.290Z,98050.03
2023-03-14T07:43:10.775Z,98036.84
2023-03-14T07:43:51.886Z,98047.09
2023-03-14T07:44:31.740Z,98049.19
2023-03-14T07:45:12.881Z,98035.63
2023-03-14T07:45:59.186Z,98019.34
2023-03-14T07:46:39.953Z,98014.75
2023-03-14T07:47:19.879Z,98048.38
2023-03-14T07:48:02.946Z,98027.28
2023-03-14T07:48:42.791Z,98043.56
2023-03-14T07:49:22.880Z,98033.97
2023-03-14T07:50:02.761Z,98023.13
2023-03-14T07:50:42.914Z,98029.38
2023-03-14T07:51:23.783Z,98009.72
2023-03-14T07:52:03.877Z,98041.50
2023-03-14T07:52:43.794Z,98034.19
2023-03-14T07:53:23.913Z,98033.53
2023-03-14T07:54:03.784Z,98043.59
2023-03-14T07:54:44.891Z,98040.88
2023-03-14T07:55:25.747Z,98048.38
2023-03-14T07:56:05.848Z,98041.06
2023-03-14T07:56:45.760Z,98026.66
2023-03-14T07:57:25.897Z,98036.91
2023-03-14T07:58:05.777Z,98034.41
2023-03-14T07:58:46.887Z,98009.56
2023-03-14T07:59:27.764Z,98025.22
2023-03-14T08:00:08.415Z,98030.03
2023-03-14T08:00:48.748Z,98022.72
2023-03-14T08:01:28.891Z,98040.69
2023-03-14T08:02:08.735Z,98032.78
2023-03-14T08:02:49.902Z,98019.56
2023-03-14T08:03:29.820Z,98023.19
2023-03-14T08:04:09.886Z,98042.19
2023-03-14T08:04:49.741Z,98010.81
2023-03-14T08:05:29.974Z,98044.88
2023-03-14T08:06:09.759Z,98024.81
2023-03-14T08:06:50.876Z,98041.78
2023-03-14T08:07:30.761Z,98020.25
2023-03-14T08:08:12.881Z,98024.81
2023-03-14T08:08:52.780Z,98024.81
2023-03-14T08:09:33.846Z,98045.09
2023-03-14T08:10:14.732Z,98035.50
2023-03-14T08:10:55.813Z,98015.25
2023-03-14T08:11:35.720Z,98020.44
2023-03-14T08:12:16.997Z,98014.38
2023-03-14T08:12:58.754Z,98005.78
2023-03-14T08:13:38.875Z,98028.56
2023-03-14T08:14:18.778Z,98012.91
2023-03-14T08:15:00.607Z,98002.47
2023-03-14T08:15:40.763Z,98013.94
2023-03-14T08:16:20.891Z,97972.41
2023-03-14T08:17:01.759Z,97988.25
2023-03-14T08:17:41.810Z,97979.88
2023-03-14T08:18:21.735Z,98009.72
2023-03-14T08:19:02.869Z,98007.88
2023-03-14T08:19:42.751Z,97974.25
2023-03-14T08:20:23.854Z,98013.88
2023-03-14T08:21:03.801Z,98000.72
2023-03-14T08:21:44.835Z,98009.25
2023-03-14T08:22:24.741Z,97970.88
2023-03-14T08:23:06.829Z,98002.63